This is the latest recevied weather packets stored in our database for station/object KE8GJZ-2. If no packets are shown the sender has not sent any weather packets the latest 10 day(s).
| Time | Temp. | Humidity | Pressure | Rain* | Wind** | Luminosity | Snow |
|---|---|---|---|---|---|---|---|
| 1777830820 | 15.56° C | 54% | 1011 hPa | 0 mm | - | 722 W/m² | - |
| 1777830515 | 15.56° C | 54% | 1011.2 hPa | 0 mm | - | 712 W/m² | - |
| 1777830213 | 15.56° C | 53% | 1011.3 hPa | 0 mm | - | 614 W/m² | - |
| 1777829908 | 16.11° C | 53% | 1011.4 hPa | 0 mm | - | 700 W/m² | - |
| 1777829605 | 15.56° C | 54% | 1011.5 hPa | 0 mm | - | 704 W/m² | - |
| 1777829301 | 16.11° C | 54% | 1011.6 hPa | 0 mm | - | 706 W/m² | - |
| 1777828999 | 15° C | 53% | 1011.4 hPa | 0 mm | - | 661 W/m² | - |
| 1777828695 | 15.56° C | 54% | 1011.9 hPa | 0 mm | - | 807 W/m² | - |
| 1777828392 | 15.56° C | 53% | 1011.9 hPa | 0 mm | - | 664 W/m² | - |
| 1777828089 | 16.11° C | 51% | 1011.7 hPa | 0 mm | - | 443 W/m² | - |
| 1777827786 | 15.56° C | 54% | 1012.1 hPa | 0 mm | - | 884 W/m² | - |
| 1777827483 | 15° C | 54% | 1011.8 hPa | 0 mm | - | 710 W/m² | - |
| 1777827180 | 15° C | 56% | 1012.3 hPa | 0 mm | - | 666 W/m² | - |
| 1777826875 | 15° C | 53% | 1012 hPa | 0 mm | - | 410 W/m² | - |
| 1777826574 | 15° C | 54% | 1011.9 hPa | 0 mm | - | 421 W/m² | - |
| 1777826269 | 15° C | 53% | 1012.2 hPa | 0 mm | - | 448 W/m² | - |
| 1777825968 | 15.56° C | 52% | 1012.3 hPa | 0 mm | - | 432 W/m² | - |
| 1777825664 | 14.44° C | 55% | 1012.5 hPa | 0 mm | - | 612 W/m² | - |
| 1777825363 | 15° C | 53% | 1012.4 hPa | 0 mm | - | 361 W/m² | - |
| 1777825059 | 15° C | 54% | 1012.7 hPa | 0 mm | - | 447 W/m² | - |
| 1777824755 | 15.56° C | 52% | 1012.6 hPa | 0 mm | - | 447 W/m² | - |
| 1777824452 | 15° C | 52% | 1012.6 hPa | 0 mm | - | 468 W/m² | - |
| 1777824148 | 15° C | 52% | 1012.6 hPa | 0 mm | - | 627 W/m² | - |
| 1777823844 | 15° C | 53% | 1012.8 hPa | 0 mm | - | 714 W/m² | - |
| 1777823542 | 14.44° C | 53% | 1012.8 hPa | 0 mm | - | 531 W/m² | - |
* Rain latest hour (hover to see other rain measurements)
** Current wind speed in m/s (hover to see current wind gust speed)